Time;durP1;ratioP1;P1;durP2;ratioP2;P2;SDS_P1;SDS_P2;PMS_P1;PMS_P2;Temp;Humidity;BMP_temperature;BMP_pressure;BME280_temperature;BME280_humidity;BME280_pressure;Samples;Min_cycle;Max_cycle;Signal;HPM_P1;HPM_P2
2022/05/11 00:01:36;;;;;;;15.88;13.88;;;;;;;18.60;48.34;93622.75;5007668;28;20041;-82
2022/05/11 00:04:01;;;;;;;16.40;13.65;;;;;;;18.58;48.54;93617.75;5007004;28;20022;-82
2022/05/11 00:06:27;;;;;;;16.83;12.60;;;;;;;18.57;48.43;93613.53;4999332;28;20041;-82
2022/05/11 00:08:53;;;;;;;16.75;13.85;;;;;;;18.57;48.63;93618.25;5000219;28;20516;-82
2022/05/11 00:11:19;;;;;;;14.70;13.00;;;;;;;18.58;48.46;93615.00;4991535;28;20042;-82
2022/05/11 00:13:44;;;;;;;16.70;12.73;;;;;;;18.59;48.14;93611.06;5025109;28;20037;-82
2022/05/11 00:16:10;;;;;;;17.63;13.02;;;;;;;18.58;48.34;93620.47;5028031;28;20033;-82
2022/05/11 00:18:36;;;;;;;18.45;13.27;;;;;;;18.58;48.54;93615.00;4992058;28;20045;-83
2022/05/11 00:21:02;;;;;;;17.98;13.32;;;;;;;18.57;48.22;93604.56;4999854;28;20405;-82
2022/05/11 00:23:27;;;;;;;15.65;13.18;;;;;;;18.58;48.43;93604.06;4976335;28;20516;-85
2022/05/11 00:25:52;;;;;;;15.68;12.32;;;;;;;18.55;48.55;93602.34;4991950;28;20041;-82
2022/05/11 00:28:18;;;;;;;14.93;12.55;;;;;;;18.56;48.50;93612.03;5008430;28;20048;-82
2022/05/11 00:30:43;;;;;;;14.40;11.88;;;;;;;18.55;48.50;93604.31;5005755;28;20041;-81
2022/05/11 00:33:11;;;;;;;13.75;11.80;;;;;;;18.56;48.10;93605.81;5008612;28;20046;-87
2022/05/11 00:35:37;;;;;;;15.68;11.57;;;;;;;18.56;48.13;93605.81;5005230;28;20137;-82
2022/05/11 00:38:03;;;;;;;15.13;11.57;;;;;;;18.57;48.61;93615.50;5005391;28;20496;-82
2022/05/11 00:40:29;;;;;;;15.32;12.05;;;;;;;18.53;48.22;93604.84;4980575;28;20034;-82
2022/05/11 00:42:54;;;;;;;14.02;11.27;;;;;;;18.55;48.33;93602.34;5013204;28;20484;-82
2022/05/11 00:45:20;;;;;;;14.07;11.80;;;;;;;18.56;48.15;93605.81;5019246;28;20046;-82
2022/05/11 00:47:49;;;;;;;13.63;11.88;;;;;;;18.55;48.06;93598.84;4991916;28;20528;-82
2022/05/11 00:50:18;;;;;;;15.13;11.77;;;;;;;18.54;48.29;93603.59;5035615;28;20041;-82
2022/05/11 00:52:54;;;;;;;16.08;13.18;;;;;;;18.54;48.31;93611.78;5017107;28;20034;-83
2022/05/11 00:55:30;;;;;;;14.88;11.88;;;;;;;18.52;48.46;93608.06;5020427;28;20033;-82
2022/05/11 00:58:01;;;;;;;14.25;11.65;;;;;;;18.51;48.16;93601.84;4993679;28;20045;-82
2022/05/11 01:00:27;;;;;;;15.00;11.25;;;;;;;18.52;47.90;93608.06;5008163;28;20033;-81
2022/05/11 01:02:56;;;;;;;15.13;11.95;;;;;;;18.54;48.57;93603.59;5006716;28;20030;-82
2022/05/11 01:05:22;;;;;;;13.63;11.38;;;;;;;18.52;48.40;93603.34;5005742;28;20030;-82
2022/05/11 01:07:49;;;;;;;15.98;12.38;;;;;;;18.52;48.06;93610.81;5022333;28;20107;-82
2022/05/11 01:10:15;;;;;;;13.40;11.10;;;;;;;18.52;48.48;93599.84;5011763;28;20037;-82
2022/05/11 01:12:43;;;;;;;13.10;11.32;;;;;;;18.52;48.14;93597.88;5006567;28;20038;-82
2022/05/11 01:15:09;;;;;;;14.30;12.10;;;;;;;18.53;48.28;93593.88;4991281;28;20029;-82
2022/05/11 01:17:35;;;;;;;13.02;11.38;;;;;;;18.52;48.18;93599.84;4996702;28;20053;-84
2022/05/11 01:20:00;;;;;;;11.85;10.38;;;;;;;18.51;47.92;93588.16;4992356;28;20037;-82
2022/05/11 01:22:36;;;;;;;13.20;10.90;;;;;;;18.50;48.28;93595.63;4991843;28;20037;-82
2022/05/11 01:25:04;;;;;;;14.02;11.52;;;;;;;18.50;48.08;93592.16;4991205;28;20731;-82
2022/05/11 01:27:37;;;;;;;13.75;10.82;;;;;;;18.48;48.07;93595.41;4991789;28;20049;-82
2022/05/11 01:30:13;;;;;;;11.63;9.90;;;;;;;18.47;47.83;93587.69;4990590;28;20064;-82
2022/05/11 01:32:41;;;;;;;13.88;10.52;;;;;;;18.49;48.01;93593.41;5008398;28;20047;-82
2022/05/11 01:35:37;;;;;;;14.73;10.90;;;;;;;18.48;48.15;93594.66;5000071;28;20518;-82
2022/05/11 01:38:23;;;;;;;16.55;12.15;;;;;;;18.47;48.32;93595.91;5020778;28;20043;-82
2022/05/11 01:40:48;;;;;;;13.07;10.85;;;;;;;18.48;47.82;93595.41;5015014;28;20048;-82
2022/05/11 01:43:23;;;;;;;12.30;10.68;;;;;;;18.47;48.54;93590.44;5011032;28;20041;-82
2022/05/11 01:45:48;;;;;;;14.27;11.32;;;;;;;18.47;47.47;93590.44;4990756;28;20033;-82
2022/05/11 01:48:14;;;;;;;13.75;10.27;;;;;;;18.47;48.38;93599.38;5021531;28;20344;-82
2022/05/11 01:50:39;;;;;;;10.98;9.88;;;;;;;18.45;48.00;93585.44;5022126;28;20358;-82
2022/05/11 01:53:05;;;;;;;12.18;10.88;;;;;;;18.48;48.14;93603.59;5025055;28;20037;-82
2022/05/11 01:55:31;;;;;;;11.40;10.05;;;;;;;18.46;47.82;93594.41;4976787;28;20048;-82
2022/05/11 01:57:57;;;;;;;12.20;9.45;;;;;;;18.46;47.72;93591.66;5008470;28;20033;-82
2022/05/11 02:00:22;;;;;;;12.25;9.55;;;;;;;18.47;47.98;93601.38;5002930;28;20061;-81
2022/05/11 02:02:48;;;;;;;12.48;10.70;;;;;;;18.47;48.05;93598.63;5018849;28;20068;-82
2022/05/11 02:07:57;;;;;;;11.32;10.00;;;;;;;18.45;48.24;93592.91;5022830;28;20094;-82
2022/05/11 02:10:24;;;;;;;11.30;10.10;;;;;;;18.44;47.80;93594.16;4978929;28;20038;-82
2022/05/11 02:12:50;;;;;;;11.75;10.55;;;;;;;18.46;48.02;93594.41;5003631;28;20036;-81
2022/05/11 02:15:16;;;;;;;11.57;9.75;;;;;;;18.42;48.25;93594.69;5005204;28;20030;-82
2022/05/11 02:17:42;;;;;;;11.05;9.90;;;;;;;18.43;48.16;93598.91;5019415;28;20123;-82
2022/05/11 02:20:08;;;;;;;11.35;10.05;;;;;;;18.45;48.21;93590.19;5020789;28;20030;-82
2022/05/11 02:22:34;;;;;;;12.68;10.50;;;;;;;18.44;48.20;93580.47;5000706;28;20120;-85
2022/05/11 02:24:59;;;;;;;12.10;9.93;;;;;;;18.43;48.08;93589.94;5009118;28;20458;-82
2022/05/11 02:27:25;;;;;;;13.02;10.63;;;;;;;18.43;48.12;93587.94;5012809;28;20033;-82
2022/05/11 02:29:50;;;;;;;10.77;9.68;;;;;;;18.44;48.10;93585.97;5023175;28;20037;-82
2022/05/11 02:32:16;;;;;;;11.32;9.18;;;;;;;18.41;48.00;93579.50;5010134;28;20092;-82
2022/05/11 02:37:28;;;;;;;13.63;10.50;;;;;;;18.44;48.12;93577.75;4984991;28;20046;-85
2022/05/11 02:39:53;;;;;;;12.05;10.63;;;;;;;18.41;48.19;93593.19;4971011;28;20033;-82
2022/05/11 02:42:18;;;;;;;12.73;9.48;;;;;;;18.43;47.86;93587.22;4989080;28;20037;-82
2022/05/11 02:44:45;;;;;;;11.80;9.30;;;;;;;18.42;48.06;93581.00;4991841;28;20044;-82
2022/05/11 02:47:11;;;;;;;10.75;9.65;;;;;;;18.40;47.68;93580.03;5003641;28;20038;-82
2022/05/11 02:49:36;;;;;;;11.77;9.82;;;;;;;18.42;48.07;93580.25;4994295;28;20056;-82
2022/05/11 02:52:02;;;;;;;10.02;8.63;;;;;;;18.41;48.51;93587.72;5007737;28;20050;-82
2022/05/11 02:54:27;;;;;;;10.75;9.65;;;;;;;18.42;48.34;93585.72;4990785;28;20045;-81
2022/05/11 02:56:53;;;;;;;10.85;8.52;;;;;;;18.40;48.29;93583.50;5006976;28;20034;-82
2022/05/11 02:59:19;;;;;;;11.10;9.48;;;;;;;18.42;47.78;93583.72;4963648;28;20057;-82
2022/05/11 03:01:44;;;;;;;10.25;9.23;;;;;;;18.39;48.47;93581.28;4990623;28;20042;-82
2022/05/11 03:04:10;;;;;;;10.80;9.35;;;;;;;18.41;48.11;93586.97;4986194;28;20042;-82
2022/05/11 03:06:35;;;;;;;11.43;9.35;;;;;;;18.42;47.79;93588.47;4966764;28;20034;-82
2022/05/11 03:09:01;;;;;;;9.93;8.93;;;;;;;18.39;48.22;93586.75;4991270;28;20491;-82
2022/05/11 03:11:26;;;;;;;11.73;9.45;;;;;;;18.40;47.70;93585.50;4990846;28;20037;-82
2022/05/11 03:13:52;;;;;;;11.38;8.88;;;;;;;18.39;47.95;93589.50;4988479;28;20114;-81
2022/05/11 03:16:17;;;;;;;10.57;9.25;;;;;;;18.39;47.84;93584.03;5022223;28;20042;-82
2022/05/11 03:18:43;;;;;;;10.88;8.80;;;;;;;18.40;47.89;93582.78;5017301;28;20397;-85
2022/05/11 03:21:08;;;;;;;11.23;9.40;;;;;;;18.38;48.02;93574.31;5001996;28;20396;-81
2022/05/11 03:23:33;;;;;;;9.80;8.43;;;;;;;18.37;48.21;93581.03;5023122;28;20381;-86
2022/05/11 03:25:59;;;;;;;9.30;8.32;;;;;;;18.39;48.06;93589.50;5019676;28;20531;-82
2022/05/11 03:28:24;;;;;;;11.02;9.90;;;;;;;18.38;48.15;93588.00;5004065;28;20476;-81
2022/05/11 03:30:50;;;;;;;9.43;8.05;;;;;;;18.39;47.76;93581.28;5002619;28;20475;-82
2022/05/11 03:36:00;;;;;;;9.45;8.00;;;;;;;18.39;47.97;93592.97;5011196;28;20076;-82
2022/05/11 03:38:25;;;;;;;10.88;9.35;;;;;;;18.39;48.04;93584.03;5017123;28;20045;-85
2022/05/11 03:40:51;;;;;;;10.20;8.80;;;;;;;18.38;47.78;93577.06;5001833;28;20042;-81
2022/05/11 03:43:16;;;;;;;10.60;8.60;;;;;;;18.37;47.94;93586.50;5021668;28;20092;-82
2022/05/11 03:45:41;;;;;;;9.32;8.15;;;;;;;18.38;47.94;93583.28;4995951;28;20034;-82
2022/05/11 03:48:07;;;;;;;8.93;8.02;;;;;;;18.37;47.54;93581.03;5006679;28;20168;-84
2022/05/11 03:50:33;;;;;;;12.77;9.32;;;;;;;18.41;47.68;93582.25;5006357;28;20120;-82
2022/05/11 03:52:58;;;;;;;9.60;8.60;;;;;;;18.42;47.38;93588.47;5015428;28;20040;-84
2022/05/11 03:55:24;;;;;;;9.80;8.75;;;;;;;18.44;47.72;93586.69;5023054;28;20071;-82
2022/05/11 03:57:50;;;;;;;12.32;8.40;;;;;;;18.49;47.72;93585.19;4994341;28;20042;-81
2022/05/11 04:00:21;;;;;;;10.27;8.55;;;;;;;18.50;48.02;93583.94;5026094;28;20887;-83
2022/05/11 04:02:46;;;;;;;8.00;7.18;;;;;;;18.45;47.08;93585.44;5017439;28;20524;-82
2022/05/11 04:05:13;;;;;;;22.08;8.25;;;;;;;18.38;45.94;93588.00;5003087;28;20065;-81
2022/05/11 04:07:39;;;;;;;17.63;8.73;;;;;;;18.33;45.54;93581.31;5007369;28;20061;-81
2022/05/11 04:10:05;;;;;;;106.82;17.55;;;;;;;18.22;44.85;93592.28;5026241;28;20603;-84
2022/05/11 04:12:30;;;;;;;45.70;11.38;;;;;;;18.23;44.61;93585.56;5027002;28;20099;-81
2022/05/11 04:14:57;;;;;;;36.55;9.45;;;;;;;18.19;44.93;93585.09;5026306;28;20034;-81
2022/05/11 04:17:22;;;;;;;26.10;8.68;;;;;;;18.26;44.63;93579.09;5002318;28;20056;-81
2022/05/11 04:19:48;;;;;;;19.75;8.52;;;;;;;18.21;44.58;93587.31;5023844;28;20042;-81
2022/05/11 04:22:13;;;;;;;24.63;8.15;;;;;;;18.15;44.70;93584.63;4993805;28;20044;-81
2022/05/11 04:24:38;;;;;;;18.45;7.97;;;;;;;18.23;44.49;93587.56;5010372;28;20048;-82
2022/05/11 04:27:05;;;;;;;16.73;8.10;;;;;;;18.17;44.67;93590.34;5029432;28;20037;-82
2022/05/11 04:29:30;;;;;;;68.80;40.40;;;;;;;18.24;45.05;93586.31;5024384;28;20037;-84
2022/05/11 04:31:56;;;;;;;251.73;179.80;;;;;;;18.28;44.92;93587.53;5025428;28;20040;-86
2022/05/11 04:34:22;;;;;;;183.88;131.50;;;;;;;18.26;44.74;93587.31;5038081;22;20056;-85
2022/05/11 04:36:47;;;;;;;32.72;14.50;;;;;;;18.32;45.09;93577.09;5029839;28;20049;-86
2022/05/11 04:39:12;;;;;;;33.97;11.43;;;;;;;18.30;45.01;93584.31;5014285;28;20049;-82
2022/05/11 04:41:38;;;;;;;34.63;12.68;;;;;;;18.31;45.16;93586.53;5027111;28;20051;-88
2022/05/11 04:44:04;;;;;;;29.08;16.10;;;;;;;18.41;45.20;93576.75;5033482;28;20102;-83
2022/05/11 04:46:33;;;;;;;102.30;73.78;;;;;;;18.43;45.77;93589.94;5024626;28;20041;-87
2022/05/11 04:52:01;;;;;;;90.55;26.67;;;;;;;18.43;45.50;93587.94;4990400;28;20149;-91
2022/05/11 04:54:27;;;;;;;107.32;24.95;;;;;;;18.44;46.14;93597.66;4974128;28;20097;-87
2022/05/11 04:56:52;;;;;;;75.75;19.63;;;;;;;18.49;45.98;93599.63;4971165;28;20049;-85
2022/05/11 04:59:18;;;;;;;35.70;11.52;;;;;;;18.37;45.85;93592.00;4986025;28;20054;-86
2022/05/11 05:01:45;;;;;;;18.88;8.55;;;;;;;18.26;46.13;93601.00;4968564;28;20050;-88
2022/05/11 05:04:10;;;;;;;30.70;9.25;;;;;;;18.21;45.91;93599.00;4968827;28;20053;-84
2022/05/11 05:06:36;;;;;;;29.05;8.85;;;;;;;18.18;46.17;93604.78;5001885;28;20054;-83
2022/05/11 05:09:03;;;;;;;18.73;8.60;;;;;;;18.15;46.52;93603.78;4985830;28;20421;-93
2022/05/11 05:11:29;;;;;;;77.93;16.17;;;;;;;18.19;46.62;93609.72;4987036;28;20491;-87
2022/05/11 05:13:54;;;;;;;52.33;12.15;;;;;;;18.13;46.52;93609.03;4984282;28;20046;-81
2022/05/11 05:16:20;;;;;;;68.55;14.48;;;;;;;18.12;46.40;93602.81;4986438;28;20074;-84
2022/05/11 05:18:46;;;;;;;88.03;16.50;;;;;;;18.13;46.07;93604.28;4964959;28;20046;-86
2022/05/11 05:21:11;;;;;;;59.67;15.25;;;;;;;18.13;45.99;93604.28;4984172;28;20058;-83
2022/05/11 05:23:36;;;;;;;50.88;13.40;;;;;;;18.15;45.78;93614.72;4989497;28;20048;-81
2022/05/11 05:26:02;;;;;;;36.92;12.95;;;;;;;18.10;46.56;93615.50;4986858;28;20041;-83
2022/05/11 05:31:16;;;;;;;56.35;16.10;;;;;;;18.18;46.61;93616.47;5028651;28;20043;-80
2022/05/11 05:33:42;;;;;;;77.05;21.17;;;;;;;18.17;46.56;93611.50;5023857;28;20108;-81
2022/05/11 05:36:08;;;;;;;56.78;15.30;;;;;;;18.19;46.83;93617.94;5025741;28;20045;-81
2022/05/11 05:38:35;;;;;;;53.70;19.95;;;;;;;18.15;46.76;93614.72;5018219;28;20164;-84
2022/05/11 05:41:01;;;;;;;60.97;23.52;;;;;;;18.23;47.15;93610.19;5011500;28;20033;-81
2022/05/11 05:43:26;;;;;;;99.03;38.58;;;;;;;18.21;47.29;93606.47;5042405;28;20033;-83
2022/05/11 05:45:53;;;;;;;96.97;37.28;;;;;;;18.24;47.64;93610.94;5039300;28;20044;-83
2022/05/11 05:48:19;;;;;;;131.35;51.95;;;;;;;18.27;47.61;93613.41;5055125;28;20087;-82
2022/05/11 05:50:45;;;;;;;141.50;51.35;;;;;;;18.31;47.36;93610.41;5025833;28;20060;-80
2022/05/11 05:53:11;;;;;;;126.35;45.35;;;;;;;18.34;47.26;93612.16;5035021;28;20045;-78
2022/05/11 05:55:36;;;;;;;94.68;38.90;;;;;;;18.39;47.41;93608.66;5025773;28;20676;-81
2022/05/11 05:58:03;;;;;;;113.38;45.38;;;;;;;18.38;46.93;93609.91;5033331;28;20033;-81
2022/05/11 06:00:29;;;;;;;85.95;32.42;;;;;;;18.42;47.17;93618.56;5026200;28;20041;-82
2022/05/11 06:02:55;;;;;;;72.50;29.75;;;;;;;18.41;47.74;93611.59;5030178;28;20124;-82
2022/05/11 06:05:20;;;;;;;71.07;26.23;;;;;;;18.48;48.29;93611.81;5051554;28;20045;-85
2022/05/11 06:07:47;;;;;;;59.80;24.05;;;;;;;18.48;48.24;93620.03;5054948;28;20041;-90
2022/05/11 06:10:13;;;;;;;42.67;17.20;;;;;;;18.54;47.72;93614.53;5020997;28;20045;-90
2022/05/11 06:12:44;;;;;;;32.10;15.25;;;;;;;18.51;47.88;93615.53;5045770;28;20044;-92
2022/05/11 06:15:13;;;;;;;27.02;13.60;;;;;;;18.53;47.94;93618.53;5034631;28;20033;-84
2022/05/11 06:17:38;;;;;;;47.90;29.42;;;;;;;18.56;47.76;93616.75;5014666;28;20045;-82
2022/05/11 06:20:08;;;;;;;33.47;17.15;;;;;;;18.59;47.74;93619.28;5026273;28;20767;-81
2022/05/11 06:22:33;;;;;;;33.95;18.63;;;;;;;18.61;47.66;93627.72;5027235;28;20041;-89
2022/05/11 06:25:00;;;;;;;32.42;18.27;;;;;;;18.65;48.05;93627.44;5038581;28;20072;-81
2022/05/11 06:27:26;;;;;;;38.75;19.35;;;;;;;18.68;47.60;93631.88;5031500;28;20037;-84
2022/05/11 06:29:57;;;;;;;64.28;28.25;;;;;;;18.70;47.56;93632.13;5029045;28;20067;-84
2022/05/11 06:32:23;;;;;;;37.03;20.35;;;;;;;18.74;47.54;93627.13;5025396;28;20046;-83
2022/05/11 06:34:49;;;;;;;46.20;23.38;;;;;;;18.74;47.22;93624.41;5013219;28;20045;-82
2022/05/11 06:37:15;;;;;;;53.42;27.75;;;;;;;18.77;47.31;93628.84;5025043;28;20057;-87
2022/05/11 06:39:40;;;;;;;75.90;31.75;;;;;;;18.78;47.64;93630.34;5050178;28;20048;-81
2022/05/11 06:42:07;;;;;;;73.20;31.67;;;;;;;18.81;47.12;93616.38;5041367;28;20060;-83
2022/05/11 06:44:33;;;;;;;75.75;31.67;;;;;;;18.85;47.09;93627.03;5032237;28;20484;-87
2022/05/11 06:46:59;;;;;;;82.20;35.33;;;;;;;18.86;46.99;93620.31;5039430;28;20128;-82
2022/05/11 06:49:24;;;;;;;77.43;34.22;;;;;;;18.86;46.89;93614.09;5037842;28;20854;-80
2022/05/11 06:51:50;;;;;;;69.05;32.90;;;;;;;18.91;47.05;93613.31;5054465;28;20040;-81
2022/05/11 06:59:45;;;;;;;97.32;37.83;;;;;;;18.94;46.80;93621.28;5022260;23;20053;-85
2022/05/11 07:02:10;;;;;;;79.95;34.70;;;;;;;18.98;46.67;93610.78;4992114;28;20042;-83
2022/05/11 07:04:38;;;;;;;90.13;33.58;;;;;;;19.00;46.62;93621.22;4974913;28;20169;-81
2022/05/11 07:07:05;;;;;;;67.40;29.58;;;;;;;19.02;46.52;93616.00;5000200;28;20038;-83
2022/05/11 07:09:32;;;;;;;74.13;30.10;;;;;;;19.02;46.70;93622.22;4999984;28;20045;-89
2022/05/11 07:14:41;;;;;;;72.50;31.50;;;;;;;19.04;46.54;93613.50;4993542;28;20045;-87
2022/05/11 07:17:07;;;;;;;85.97;32.95;;;;;;;19.04;46.52;93614.22;5000940;28;20113;-82
2022/05/11 07:19:34;;;;;;;96.20;34.70;;;;;;;19.06;46.66;93619.19;4988689;28;20121;-84
2022/05/11 07:22:00;;;;;;;102.00;34.70;;;;;;;19.10;46.55;93600.47;5012925;28;20101;-83
2022/05/11 07:24:26;;;;;;;98.53;33.22;;;;;;;19.12;46.62;93614.41;4979125;28;20030;-81
2022/05/11 07:26:54;;;;;;;105.50;37.50;;;;;;;19.10;46.57;93608.69;4991760;28;20097;-81
2022/05/11 07:29:22;;;;;;;112.80;39.42;;;;;;;19.13;46.07;93607.66;4999067;28;20080;-81
2022/05/11 07:31:48;;;;;;;113.13;36.40;;;;;;;19.12;46.21;93615.16;4985445;28;20044;-82
2022/05/11 07:34:13;;;;;;;90.22;34.63;;;;;;;19.12;46.29;93612.41;5001613;28;20045;-86
2022/05/11 07:36:39;;;;;;;85.63;33.00;;;;;;;19.14;46.32;93614.63;4996830;28;20045;-83
2022/05/11 07:39:04;;;;;;;81.20;33.28;;;;;;;19.16;46.24;93614.88;4990500;28;20125;-80
2022/05/11 07:41:30;;;;;;;75.97;32.25;;;;;;;19.16;46.31;93618.34;4977668;28;20042;-80
2022/05/11 07:43:55;;;;;;;72.90;29.77;;;;;;;19.17;46.42;93611.63;4994102;28;20073;-81
2022/05/11 07:46:21;;;;;;;73.15;30.08;;;;;;;19.16;46.26;93609.41;4978391;28;20042;-85
2022/05/11 07:48:47;;;;;;;91.60;31.17;;;;;;;19.19;46.13;93611.13;4990756;28;20132;-81
2022/05/11 07:51:13;;;;;;;58.55;26.58;;;;;;;19.23;46.15;93616.31;4999633;28;20073;-82
2022/05/11 07:53:39;;;;;;;58.22;24.95;;;;;;;19.20;45.89;93604.38;5012075;28;20053;-83
2022/05/11 08:01:32;;;;;;;51.17;22.88;;;;;;;19.22;45.98;93609.34;5004809;28;20056;-83
2022/05/11 08:03:58;;;;;;;62.17;25.35;;;;;;;19.24;45.76;93607.59;5000002;28;20117;-83
2022/05/11 08:06:24;;;;;;;58.88;22.73;;;;;;;19.22;46.18;93614.84;5008337;28;20046;-82
2022/05/11 08:08:50;;;;;;;59.72;25.50;;;;;;;19.21;46.36;93616.09;4997523;28;20042;-82
2022/05/11 08:11:15;;;;;;;53.83;21.63;;;;;;;19.23;45.87;93608.84;4988024;28;20042;-83
2022/05/11 08:13:41;;;;;;;45.50;21.42;;;;;;;19.23;46.17;93610.84;4992829;28;20035;-83
2022/05/11 08:16:06;;;;;;;43.67;22.02;;;;;;;19.25;46.26;93602.84;5012450;28;20057;-82
2022/05/11 08:18:32;;;;;;;67.88;25.95;;;;;;;19.26;45.97;93605.09;4973670;28;20046;-82
2022/05/11 08:20:57;;;;;;;65.57;25.20;;;;;;;19.28;46.20;93610.03;4993128;28;20088;-81
2022/05/11 08:23:23;;;;;;;67.22;26.75;;;;;;;19.28;46.27;93608.03;4992751;28;20053;-81
2022/05/11 08:25:51;;;;;;;67.30;29.67;;;;;;;19.30;46.43;93608.25;4972973;28;20049;-82
2022/05/11 08:28:20;;;;;;;131.88;58.67;;;;;;;19.31;46.24;93606.28;4998021;28;20405;-83
2022/05/11 08:33:31;;;;;;;148.13;66.93;;;;;;;19.30;46.22;93605.53;4995658;28;20056;-84
2022/05/11 08:35:59;;;;;;;183.75;79.28;;;;;;;19.31;46.41;93617.97;5003888;28;20408;-83
2022/05/11 08:38:28;;;;;;;163.60;71.30;;;;;;;19.32;46.23;93616.72;4999774;28;20069;-90
2022/05/11 08:41:00;;;;;;;159.95;78.90;;;;;;;19.29;46.42;93619.75;5006261;28;20044;-82
2022/05/11 08:43:28;;;;;;;175.70;73.18;;;;;;;19.32;46.16;93616.72;5022877;28;20160;-83
2022/05/11 08:46:35;;;;;;;180.80;90.53;;;;;;;19.30;46.42;93624.72;4996516;28;20095;-82
2022/05/11 08:49:03;;;;;;;197.45;92.10;;;;;;;19.32;46.71;93613.97;5006520;28;20071;-83
2022/05/11 08:51:42;;;;;;;183.98;87.43;;;;;;;19.34;46.48;93616.22;4976261;28;20042;-81
2022/05/11 08:54:14;;;;;;;162.75;82.00;;;;;;;19.32;46.66;93627.69;4994022;28;20133;-82
2022/05/11 08:56:41;;;;;;;185.63;87.95;;;;;;;19.35;46.91;93620.44;5008470;28;20050;-85
2022/05/11 08:59:07;;;;;;;165.38;81.50;;;;;;;19.36;46.59;93624.66;4985591;28;20132;-83
2022/05/11 09:01:45;;;;;;;173.15;83.50;;;;;;;19.34;46.91;93616.22;4976764;28;20038;-81
2022/05/11 09:04:11;;;;;;;178.90;83.13;;;;;;;19.35;46.81;93629.41;5006172;28;20038;-82
2022/05/11 09:06:37;;;;;;;155.57;75.43;;;;;;;19.32;46.75;93622.22;4991703;28;20042;-82
2022/05/11 09:09:03;;;;;;;194.88;81.80;;;;;;;19.33;46.68;93629.19;5008066;28;20037;-84
2022/05/11 09:11:29;;;;;;;187.55;81.90;;;;;;;19.34;46.97;93619.69;5013443;28;20045;-83
2022/05/11 09:13:59;;;;;;;222.90;79.43;;;;;;;19.33;47.04;93620.94;5012106;28;20034;-87
2022/05/11 09:16:43;;;;;;;186.05;77.00;;;;;;;19.34;46.88;93625.19;5010971;28;20061;-82
2022/05/11 09:19:15;;;;;;;187.70;73.20;;;;;;;19.38;46.99;93630.38;4994977;28;20133;-85
2022/05/11 09:21:41;;;;;;;170.00;72.75;;;;;;;19.34;46.73;93619.69;5011714;28;20076;-81
2022/05/11 09:24:18;;;;;;;162.77;69.65;;;;;;;19.33;46.94;93628.44;4977542;28;20140;-82
2022/05/11 09:26:46;;;;;;;162.98;73.75;;;;;;;19.36;46.79;93625.41;5007478;28;20038;-82
2022/05/11 09:29:31;;;;;;;165.10;75.57;;;;;;;19.35;47.08;93620.44;4990395;28;20049;-84
2022/05/11 09:31:57;;;;;;;207.68;87.05;;;;;;;19.38;46.83;93630.38;4982838;28;20049;-83
2022/05/11 09:34:26;;;;;;;164.07;73.78;;;;;;;19.35;46.80;93631.41;4983485;28;20056;-81
2022/05/11 09:37:01;;;;;;;184.68;75.38;;;;;;;19.36;47.05;93621.94;5009547;28;20129;-82
2022/05/11 09:39:27;;;;;;;165.60;74.78;;;;;;;19.36;47.33;93630.91;4993619;28;20575;-84
2022/05/11 09:41:54;;;;;;;172.48;72.38;;;;;;;19.35;47.17;93632.16;4977195;28;20041;-85
2022/05/11 09:44:21;;;;;;;207.00;76.55;;;;;;;19.38;46.99;93622.16;4974250;28;20046;-82
2022/05/11 09:46:46;;;;;;;152.93;65.20;;;;;;;19.37;46.92;93626.91;4992128;28;20052;-82
2022/05/11 09:49:21;;;;;;;125.55;56.92;;;;;;;19.42;47.19;93625.38;5009096;28;20501;-84
2022/05/11 09:51:46;;;;;;;111.82;52.08;;;;;;;19.46;46.91;93612.88;5010983;28;20573;-83
2022/05/11 09:54:24;;;;;;;109.35;53.45;;;;;;;19.55;46.93;93620.03;5029816;28;20052;-84
2022/05/11 09:56:49;;;;;;;101.40;50.28;;;;;;;19.55;47.16;93620.03;5003777;28;20045;-88
2022/05/11 09:59:37;;;;;;;98.60;50.42;;;;;;;19.63;46.98;93615.47;5031211;28;20045;-82
2022/05/11 10:02:35;;;;;;;100.22;45.25;;;;;;;19.62;46.96;93618.72;4995712;28;20034;-81
2022/05/11 10:05:04;;;;;;;85.43;43.80;;;;;;;19.69;47.27;93615.44;5019916;28;20049;-83
2022/05/11 10:07:32;;;;;;;90.53;42.72;;;;;;;19.73;47.08;93610.38;4980157;28;20136;-83
2022/05/11 10:10:05;;;;;;;78.32;43.92;;;;;;;19.73;47.02;93610.38;4974157;28;20034;-83
2022/05/11 10:12:36;;;;;;;75.32;37.90;;;;;;;19.74;47.18;93607.13;4962985;28;20497;-84
2022/05/11 10:23:34;;;;;;;52.78;29.67;;;;;;;19.88;47.41;93610.00;4994536;28;20130;-83
2022/05/11 10:26:08;;;;;;;46.03;28.13;;;;;;;19.92;47.61;93602.94;5012114;28;20057;-81
2022/05/11 10:28:57;;;;;;;47.80;30.85;;;;;;;19.93;47.49;93589.97;5001278;28;20087;-84
2022/05/11 10:31:33;;;;;;;53.47;33.20;;;;;;;19.98;47.26;93605.63;5010097;28;20045;-83
2022/05/11 10:34:04;;;;;;;66.00;44.80;;;;;;;20.04;47.80;93596.06;5010223;28;20049;-87
2022/05/11 10:36:42;;;;;;;;;;;;;;;20.01;47.74;93601.84;5002692;28;20067;-88
2022/05/11 10:39:45;;;;;;;76.15;36.33;;;;;;;19.98;47.93;93598.13;5028833;28;19921;-84
2022/05/11 10:42:27;;;;;;;475.65;220.35;;;;;;;19.99;47.72;93598.88;4987437;28;20216;-84
2022/05/11 10:45:09;;;;;;;70.18;31.77;;;;;;;20.01;47.75;93588.13;4998029;28;20096;-88
2022/05/11 10:47:38;;;;;;;93.43;44.63;;;;;;;20.01;47.87;93590.88;4996360;28;20037;-84
2022/05/11 10:50:29;;;;;;;44.17;21.63;;;;;;;19.99;47.91;93585.16;5025625;28;20044;-82
2022/05/11 10:53:08;;;;;;;56.20;30.73;;;;;;;19.97;47.90;93576.69;5006060;28;20045;-85
2022/05/11 10:55:56;;;;;;;55.42;27.17;;;;;;;19.90;47.83;93580.03;5011565;28;20072;-80
2022/05/11 10:58:21;;;;;;;44.30;25.98;;;;;;;19.91;47.94;93571.28;5009368;28;20079;-82
2022/05/11 11:00:51;;;;;;;58.92;27.90;;;;;;;19.87;48.04;93579.06;5027858;28;20428;-82
2022/05/11 11:03:30;;;;;;;113.30;33.53;;;;;;;19.85;48.21;93570.63;5010960;28;20547;-82
2022/05/11 11:09:21;;;;;;;97.70;50.22;;;;;;;19.87;48.36;93557.13;5038487;28;20096;-82
2022/05/11 11:11:58;;;;;;;76.03;45.00;;;;;;;19.86;48.19;93566.59;5019319;28;20052;-82
2022/05/11 11:14:29;;;;;;;81.30;38.10;;;;;;;19.88;48.28;93566.09;5034631;28;20049;-84
2022/05/11 11:16:56;;;;;;;87.47;38.95;;;;;;;19.88;48.06;93563.34;4990323;28;20037;-81
2022/05/11 11:19:21;;;;;;;75.20;37.92;;;;;;;19.83;48.52;93560.16;4982956;28;20046;-82
2022/05/11 11:21:47;;;;;;;120.28;62.28;;;;;;;19.82;48.42;93561.41;4985128;28;20494;-82
2022/05/11 11:24:24;;;;;;;104.63;57.10;;;;;;;19.86;48.32;93566.59;5025151;28;20056;-83
2022/05/11 11:27:00;;;;;;;85.63;45.33;;;;;;;19.81;48.85;93551.69;5021165;28;20056;-82
2022/05/11 11:29:26;;;;;;;110.88;53.22;;;;;;;19.86;48.62;93552.91;5001210;28;20037;-82
2022/05/11 11:31:58;;;;;;;110.72;56.42;;;;;;;19.85;48.58;93537.69;5018563;28;20048;-82
2022/05/11 11:34:28;;;;;;;97.93;50.88;;;;;;;19.84;48.53;93553.41;5016027;28;20041;-82
2022/05/11 11:36:53;;;;;;;167.00;61.88;;;;;;;19.87;48.50;93554.38;5011614;28;20146;-82
2022/05/11 11:39:48;;;;;;;112.22;52.80;;;;;;;19.83;48.62;93549.19;4983469;28;20065;-82
2022/05/11 11:42:36;;;;;;;167.02;76.25;;;;;;;19.84;48.32;93539.69;5000569;28;20048;-82
2022/05/11 11:45:03;;;;;;;150.85;76.03;;;;;;;19.85;48.58;93541.19;5001972;28;20038;-82
2022/05/11 11:47:30;;;;;;;214.15;94.70;;;;;;;19.86;48.72;93530.94;5001506;28;20072;-82
2022/05/11 11:49:57;;;;;;;217.73;96.60;;;;;;;19.85;48.77;93538.44;5015975;28;20514;-88
2022/05/11 11:52:34;;;;;;;201.43;97.18;;;;;;;19.85;48.77;93532.22;4994398;28;20072;-82
2022/05/11 11:55:00;;;;;;;215.70;106.85;;;;;;;19.84;48.76;93534.22;4998898;28;20488;-83
2022/05/11 11:57:25;;;;;;;209.93;108.68;;;;;;;19.89;48.73;93529.91;5014778;28;20067;-84
2022/05/11 11:59:52;;;;;;;240.93;127.03;;;;;;;19.90;48.72;93531.41;5033647;28;20060;-83
2022/05/11 12:02:22;;;;;;;244.05;126.25;;;;;;;19.91;48.86;93523.91;4974148;28;20043;-83
2022/05/11 12:04:59;;;;;;;241.07;119.32;;;;;;;19.88;48.67;93520.19;4972849;28;20050;-83